Tallahassee, FL

1:20 PM EDT on August 02, 2015 (GMT -0400)
Hartsfield Elementary School WeatherSTEM | | Change Station
CLOSE
Current Station
Personal Weather Station
Location: Tallahassee, FL
Elevation: 203 ft
Nearby Weather Stations

Elev 203 ft 30.43 °N, 84.26 °W | Updated 6 minutes ago

Overcast
Overcast
84.0 °F
Feels Like 93 °F
N
3.0
Wind Variable Wind from West
Gusts 6.0 mph

Today
High -- | Low -- °F
--% Chance of Precip.
Yesterday
High -- | Low -- °F
Precip. -- in
6:55 AM 8:30 PM
Waning Gibbous, 93% visible
Pressure 29.85 in
Visibility 10.0 miles
Clouds Mostly Cloudy 2600 ft
Mostly Cloudy 25000 ft
Heat Index 93 °F
Dew Point 76 °F
Humidity 76%
Rainfall 0.00 in
Snow Depth Not available.
UV 3.1 out of 12
Pollen 2.50 out of 12
Air Quality Not available.
Flu Activity Not available.
METAR KTLH 021653Z 02008KT 10SM BKN026 BKN250 30/23 A2985 RMK AO2 SLP107 T03000233 $

More Conditions Fewer Conditions

Pressure 29.85 in
Visibility 10.0 miles
Clouds Mostly Cloudy 2600 ft
Mostly Cloudy 25000 ft
Heat Index 93 °F
Dew Point 76 °F
Humidity 76%
Rainfall 0.00 in
Snow Depth Not available.
UV 3.1 out of 12
Pollen 2.50 out of 12
Air Quality Not available.
Flu Activity Not available.
METAR KTLH 021653Z 02008KT 10SM BKN026 BKN250 30/23 A2985 RMK AO2 SLP107 T03000233 $

More Conditions Fewer Conditions

10-Day Weather Forecast

×

Almanac

Astronomy

Aug. 02, 2015 Rise Set
Actual Time
Civil Twilight
Nautical Twilight
Astronomical Twilight
Moon
Length of Visible Light
Length of Day
Tomorrow will be .
, % of the Moon is Illuminated

Today's Extremes

State Highs State Lows

Community

WunderPhotos

Upload Photos

1,843,319 photos uploaded!

WunderBlogs® & News

Nearby

Air Quality

  Air Quality AQ Index Pollutant
Not available.

Snow Depth

Station Depth Elevation

Earthquake Activity

City Distance Mag. Time & Date
Minimum magnitude displayed is 2.5.

Coastal Water Temperatures

Place Temperature

Stations

Nearby Weather Stations

Station Location Temp. Windchill Dew Point Humidity Wind Precip. Elev Updated Type